createdAt,value
2018-11-12T00:00:19.222Z,1.40
2018-11-12T00:02:50.479Z,1.40
2018-11-12T00:05:20.200Z,1.40
2018-11-12T00:07:49.909Z,1.37
2018-11-12T00:10:19.154Z,1.30
2018-11-12T00:12:48.300Z,1.47
2018-11-12T00:15:18.324Z,1.40
2018-11-12T00:17:47.681Z,1.40
2018-11-12T00:20:17.649Z,1.40
2018-11-12T00:22:47.357Z,1.57
2018-11-12T00:25:16.512Z,1.37
2018-11-12T00:27:45.713Z,1.47
2018-11-12T00:30:16.404Z,1.40
2018-11-12T00:32:46.453Z,1.62
2018-11-12T00:35:15.608Z,1.50
2018-11-12T00:37:45.408Z,1.40
2018-11-12T00:40:16.565Z,1.50
2018-11-12T00:42:46.237Z,1.30
2018-11-12T00:45:15.838Z,1.50
2018-11-12T00:47:45.182Z,1.40
2018-11-12T00:50:15.304Z,1.30
2018-11-12T00:52:44.829Z,1.50
2018-11-12T00:55:15.018Z,1.40
2018-11-12T00:57:44.707Z,1.42
2018-11-12T01:00:17.308Z,1.27
2018-11-12T01:02:47.704Z,1.55
2018-11-12T01:05:17.591Z,1.52
2018-11-12T01:07:47.777Z,1.50
2018-11-12T01:10:18.102Z,1.30
2018-11-12T01:12:47.697Z,1.50
2018-11-12T01:15:18.556Z,1.20
2018-11-12T01:17:47.740Z,1.25
2018-11-12T01:20:18.593Z,1.30
2018-11-12T01:22:47.726Z,1.40
2018-11-12T01:25:16.905Z,1.35
2018-11-12T01:27:46.278Z,1.50
2018-11-12T01:30:16.904Z,1.67
2018-11-12T01:32:46.296Z,1.50
2018-11-12T01:35:17.332Z,1.30
2018-11-12T01:37:47.500Z,1.60
2018-11-12T01:40:17.154Z,1.42
2018-11-12T01:42:47.128Z,1.50
2018-11-12T01:45:17.861Z,1.30
2018-11-12T01:47:48.128Z,1.50
2018-11-12T01:50:17.920Z,1.30
2018-11-12T01:52:47.936Z,1.42
2018-11-12T01:55:18.291Z,1.47
2018-11-12T01:57:47.992Z,1.30
2018-11-12T02:00:21.985Z,1.40
2018-11-12T02:02:52.913Z,1.57
2018-11-12T02:05:22.102Z,1.37
2018-11-12T02:07:51.284Z,1.52
2018-11-12T02:10:20.441Z,1.45
2018-11-12T02:12:51.113Z,1.50
2018-11-12T02:15:21.449Z,1.30
2018-11-12T02:17:51.154Z,1.40
2018-11-12T02:20:21.281Z,1.50
2018-11-12T02:22:51.020Z,1.22
2018-11-12T02:25:20.766Z,1.45
2018-11-12T02:27:49.894Z,1.12
2018-11-12T02:30:24.681Z,1.30
2018-11-12T02:32:53.824Z,1.20
2018-11-12T02:35:22.984Z,1.20
2018-11-12T02:37:52.121Z,1.40
2018-11-12T02:40:21.472Z,1.20
2018-11-12T02:42:50.624Z,1.30
2018-11-12T02:45:19.861Z,1.27
2018-11-12T02:47:48.969Z,1.40
2018-11-12T02:50:18.437Z,1.20
2018-11-12T02:52:47.549Z,1.50
2018-11-12T02:55:16.833Z,1.27
2018-11-12T02:57:47.019Z,1.27
2018-11-12T03:00:18.946Z,1.27
2018-11-12T03:02:48.161Z,1.30
2018-11-12T03:05:17.257Z,1.45
2018-11-12T03:07:46.740Z,1.30
2018-11-12T03:10:19.556Z,1.10
2018-11-12T03:12:49.298Z,1.17
2018-11-12T03:15:19.091Z,1.10
2018-11-12T03:17:48.833Z,1.37
2018-11-12T03:20:20.252Z,1.50
2018-11-12T03:22:49.412Z,1.30
2018-11-12T03:25:19.825Z,1.22
2018-11-12T03:27:50.130Z,1.32
2018-11-12T03:30:20.393Z,1.32
2018-11-12T03:32:50.277Z,1.30
2018-11-12T03:35:19.441Z,1.50
2018-11-12T03:37:50.112Z,1.50
2018-11-12T03:40:22.299Z,1.20
2018-11-12T03:42:51.880Z,1.27
2018-11-12T03:45:22.208Z,1.37
2018-11-12T03:47:51.434Z,1.50
2018-11-12T03:50:21.965Z,1.32
2018-11-12T03:52:51.076Z,1.17
2018-11-12T03:55:21.308Z,1.47
2018-11-12T03:57:50.515Z,1.25
2018-11-12T04:00:22.564Z,1.12
2018-11-12T04:02:51.681Z,1.10
2018-11-12T04:05:20.835Z,1.15
2018-11-12T04:07:49.937Z,1.12
2018-11-12T04:10:20.248Z,1.20
2018-11-12T04:12:49.580Z,1.40
2018-11-12T04:15:21.237Z,1.20
2018-11-12T04:17:50.330Z,0.90
2018-11-12T04:20:20.620Z,0.95
2018-11-12T04:23:03.377Z,1.10
2018-11-12T04:25:34.288Z,1.20
2018-11-12T04:28:03.681Z,1.50
2018-11-12T04:30:33.423Z,1.00
2018-11-12T04:33:03.473Z,1.20
2018-11-12T04:35:33.675Z,1.10
2018-11-12T04:38:02.866Z,1.17
2018-11-12T04:40:32.640Z,1.10
2018-11-12T04:43:01.816Z,1.20
2018-11-12T04:45:31.065Z,1.20
2018-11-12T04:48:00.230Z,1.12
2018-11-12T04:50:30.272Z,1.07
2018-11-12T04:52:59.512Z,1.20
2018-11-12T04:55:28.771Z,1.20
2018-11-12T04:57:57.822Z,1.40
2018-11-12T05:00:29.320Z,1.20
2018-11-12T05:02:58.525Z,1.12
2018-11-12T05:05:28.570Z,1.40
2018-11-12T05:07:57.704Z,1.20
2018-11-12T05:10:27.608Z,1.40
2018-11-12T05:12:57.009Z,1.20
2018-11-12T05:15:26.665Z,1.30
2018-11-12T05:17:56.277Z,1.30
2018-11-12T05:20:26.753Z,1.10
2018-11-12T05:22:56.433Z,1.30
2018-11-12T05:25:25.577Z,1.30
2018-11-12T05:27:55.225Z,1.20
2018-11-12T05:30:26.425Z,1.10
2018-11-12T05:32:55.888Z,1.17
2018-11-12T05:35:26.360Z,1.20
2018-11-12T05:37:55.847Z,1.20
2018-11-12T05:40:28.932Z,1.20
2018-11-12T05:42:58.639Z,1.12
2018-11-12T05:45:29.041Z,1.02
2018-11-12T05:47:58.237Z,1.10
2018-11-12T05:50:28.730Z,1.15
2018-11-12T05:52:59.437Z,1.12
2018-11-12T05:55:29.673Z,1.00
2018-11-12T05:58:00.031Z,1.10
2018-11-12T06:00:30.509Z,0.98
2018-11-12T06:02:59.641Z,1.00
2018-11-12T06:05:28.748Z,1.27
2018-11-12T06:07:57.951Z,1.20
2018-11-12T06:10:28.329Z,1.02
2018-11-12T06:12:58.081Z,1.30
2018-11-12T06:15:27.585Z,1.17
2018-11-12T06:17:56.666Z,1.17
2018-11-12T06:20:27.160Z,1.17
2018-11-12T06:22:56.297Z,1.20
2018-11-12T06:25:27.089Z,1.00
2018-11-12T06:27:57.105Z,1.22
2018-11-12T06:30:27.773Z,1.10
2018-11-12T06:32:56.885Z,1.00
2018-11-12T06:35:26.089Z,1.27
2018-11-12T06:37:56.006Z,1.15
2018-11-12T06:40:26.276Z,1.20
2018-11-12T06:42:55.785Z,1.10
2018-11-12T06:45:27.082Z,1.05
2018-11-12T06:47:57.073Z,0.90
2018-11-12T06:50:28.746Z,1.10
2018-11-12T06:52:58.273Z,1.12
2018-11-12T06:55:27.393Z,1.10
2018-11-12T06:57:57.007Z,0.95
2018-11-12T07:00:28.258Z,1.10
2018-11-12T07:02:57.397Z,1.10
2018-11-12T07:05:26.946Z,1.10
2018-11-12T07:07:56.624Z,1.00
2018-11-12T07:10:26.789Z,1.12
2018-11-12T07:12:56.805Z,1.30
2018-11-12T07:15:27.441Z,1.10
2018-11-12T07:17:56.725Z,1.00
2018-11-12T07:20:27.264Z,1.00
2018-11-12T07:22:56.685Z,1.00
2018-11-12T07:25:27.225Z,0.80
2018-11-12T07:27:56.486Z,1.00
2018-11-12T07:30:26.643Z,1.07
2018-11-12T07:32:57.134Z,1.10
2018-11-12T07:35:26.843Z,1.00
2018-11-12T07:37:56.793Z,1.02
2018-11-12T07:40:27.264Z,0.90
2018-11-12T07:42:56.433Z,1.05
2018-11-12T07:45:27.352Z,1.25
2018-11-12T07:47:57.194Z,0.90
2018-11-12T07:50:27.572Z,1.00
2018-11-12T07:52:57.342Z,0.93
2018-11-12T07:55:27.673Z,1.00
2018-11-12T07:57:57.669Z,0.80
2018-11-12T08:00:28.074Z,0.90
2018-11-12T08:03:02.756Z,1.02
2018-11-12T08:05:31.808Z,0.90
2018-11-12T08:08:01.014Z,0.90
2018-11-12T08:10:30.164Z,0.90
2018-11-12T08:12:59.353Z,0.90
2018-11-12T08:15:28.464Z,0.93
2018-11-12T08:17:57.653Z,0.80
2018-11-12T08:20:27.462Z,1.00
2018-11-12T08:22:56.672Z,0.90
2018-11-12T08:25:25.988Z,0.95
2018-11-12T08:27:55.189Z,0.90
2018-11-12T08:30:25.579Z,1.00
2018-11-12T08:32:56.290Z,0.80
2018-11-12T08:35:25.718Z,0.80
2018-11-12T08:37:55.735Z,0.80
2018-11-12T08:40:26.485Z,0.98
2018-11-12T08:42:55.629Z,0.88
2018-11-12T08:45:24.869Z,0.80
2018-11-12T08:47:55.578Z,0.90
2018-11-12T08:50:26.465Z,0.80
2018-11-12T08:52:56.462Z,0.93
2018-11-12T08:55:28.641Z,0.80
2018-11-12T08:57:59.189Z,1.00
2018-11-12T09:00:28.760Z,1.02
2018-11-12T09:02:58.185Z,0.90
2018-11-12T09:05:29.033Z,0.95
2018-11-12T09:07:59.561Z,1.00
2018-11-12T09:10:30.314Z,1.05
2018-11-12T09:12:59.413Z,0.90
2018-11-12T09:15:28.692Z,0.93
2018-11-12T09:17:58.197Z,1.00
2018-11-12T09:20:28.926Z,1.00
2018-11-12T09:22:58.057Z,1.00
2018-11-12T09:25:28.116Z,0.85
2018-11-12T09:27:57.544Z,0.90
2018-11-12T09:30:28.981Z,1.00
2018-11-12T09:32:58.301Z,1.00
2018-11-12T09:35:29.596Z,1.00
2018-11-12T09:38:00.104Z,1.10
2018-11-12T09:40:31.562Z,1.00
2018-11-12T09:43:00.743Z,1.07
2018-11-12T09:45:29.989Z,1.00
2018-11-12T09:47:59.227Z,1.00
2018-11-12T09:50:29.038Z,0.93
2018-11-12T09:52:59.352Z,1.20
2018-11-12T09:55:29.633Z,1.00
2018-11-12T09:58:00.125Z,1.02
2018-11-12T10:00:29.544Z,1.00
2018-11-12T10:02:58.946Z,1.10
2018-11-12T10:05:29.126Z,1.10
2018-11-12T10:08:05.193Z,1.00
2018-11-12T10:10:43.651Z,1.00
2018-11-12T10:13:16.098Z,1.10
2018-11-12T10:15:47.072Z,0.98
2018-11-12T10:20:41.981Z,1.00
2018-11-12T10:23:11.402Z,0.88
2018-11-12T10:25:40.946Z,1.00
2018-11-12T10:28:10.077Z,0.80
2018-11-12T10:30:39.249Z,0.90
2018-11-12T10:33:08.662Z,1.00
2018-11-12T10:35:37.825Z,0.90
2018-11-12T10:38:07.537Z,1.10
2018-11-12T10:40:36.813Z,0.95
2018-11-12T10:43:06.169Z,1.10
2018-11-12T10:45:35.358Z,0.90
2018-11-12T10:48:04.796Z,1.02
2018-11-12T10:50:33.894Z,0.90
2018-11-12T10:53:03.117Z,0.90
2018-11-12T10:55:32.673Z,0.98
2018-11-12T10:58:01.533Z,0.90
2018-11-12T11:00:37.877Z,1.00
2018-11-12T11:03:14.297Z,0.98
2018-11-12T11:05:44.569Z,1.22
2018-11-12T11:08:14.050Z,1.00
2018-11-12T11:10:43.169Z,0.93
2018-11-12T11:13:12.317Z,1.10
2018-11-12T11:15:41.547Z,1.07
2018-11-12T11:18:11.121Z,1.05
2018-11-12T11:20:40.358Z,1.00
2018-11-12T11:23:09.506Z,1.10
2018-11-12T11:25:38.757Z,1.10
2018-11-12T11:28:07.879Z,1.10
2018-11-12T11:30:37.037Z,1.00
2018-11-12T11:33:07.231Z,1.00
2018-11-12T11:35:36.337Z,1.25
2018-11-12T11:38:05.612Z,1.20
2018-11-12T11:40:34.825Z,1.10
2018-11-12T11:43:04.044Z,1.10
2018-11-12T11:45:33.193Z,1.00
2018-11-12T11:48:02.417Z,1.10
2018-11-12T11:50:31.783Z,1.20
2018-11-12T11:53:00.961Z,0.95
2018-11-12T11:55:30.363Z,1.20
2018-11-12T11:57:59.655Z,1.00
2018-11-12T12:00:29.588Z,1.22
2018-11-12T12:02:59.991Z,1.25
2018-11-12T12:05:29.503Z,1.27
2018-11-12T12:07:59.157Z,1.32
2018-11-12T12:10:28.345Z,1.12
2018-11-12T12:12:57.569Z,1.10
2018-11-12T12:15:26.785Z,1.20
2018-11-12T12:17:56.085Z,1.30
2018-11-12T12:20:26.553Z,1.20
2018-11-12T12:22:56.209Z,1.10
2018-11-12T12:25:26.118Z,1.20
2018-11-12T12:27:55.813Z,1.10
2018-11-12T12:30:26.334Z,1.12
2018-11-12T12:32:56.725Z,1.10
2018-11-12T12:35:25.942Z,1.20
2018-11-12T12:37:56.201Z,1.20
2018-11-12T12:40:26.043Z,1.10
2018-11-12T12:42:55.216Z,1.20
2018-11-12T12:45:25.820Z,1.20
2018-11-12T12:47:55.841Z,1.22
2018-11-12T12:50:25.031Z,0.90
2018-11-12T12:52:54.867Z,1.10
2018-11-12T12:55:24.074Z,1.10
2018-11-12T12:57:53.211Z,1.10
2018-11-12T13:00:24.173Z,1.12
2018-11-12T13:02:54.035Z,1.00
2018-11-12T13:05:23.217Z,1.00
2018-11-12T13:07:52.365Z,0.88
2018-11-12T13:10:22.751Z,0.78
2018-11-12T13:12:51.880Z,0.88
2018-11-12T13:15:21.956Z,1.17
2018-11-12T13:17:52.049Z,0.80
2018-11-12T13:20:22.776Z,0.93
2018-11-12T13:22:51.924Z,1.40
2018-11-12T13:25:21.369Z,0.90
2018-11-12T13:27:50.492Z,1.17
2018-11-12T13:30:21.113Z,1.00
2018-11-12T13:32:50.902Z,1.00
2018-11-12T13:35:22.542Z,1.00
2018-11-12T13:37:51.717Z,1.30
2018-11-12T13:40:23.729Z,0.82
2018-11-12T13:42:55.369Z,1.32
2018-11-12T13:45:24.834Z,1.00
2018-11-12T13:47:54.882Z,0.90
2018-11-12T13:50:26.360Z,1.07
2018-11-12T13:52:56.248Z,1.10
2018-11-12T13:55:25.629Z,1.12
2018-11-12T13:57:55.381Z,0.90
2018-11-12T14:00:27.885Z,1.10
2018-11-12T14:02:57.389Z,1.20
2018-11-12T14:05:27.281Z,1.10
2018-11-12T14:07:56.411Z,0.93
2018-11-12T14:10:28.128Z,1.10
2018-11-12T14:12:58.079Z,1.20
2018-11-12T14:15:27.433Z,1.37
2018-11-12T14:17:57.044Z,1.17
2018-11-12T14:20:27.096Z,1.17
2018-11-12T14:22:56.124Z,1.00
2018-11-12T14:25:25.761Z,1.00
2018-11-12T14:27:56.220Z,0.93
2018-11-12T14:30:27.070Z,1.00
2018-11-12T14:32:56.206Z,1.10
2018-11-12T14:35:25.473Z,0.98
2018-11-12T14:37:54.589Z,1.07
2018-11-12T14:40:23.829Z,1.30
2018-11-12T14:42:53.253Z,1.00
2018-11-12T14:45:22.832Z,0.90
2018-11-12T14:47:52.020Z,1.10
2018-11-12T14:50:21.578Z,1.10
2018-11-12T14:52:50.745Z,1.15
2018-11-12T14:55:19.965Z,1.12
2018-11-12T14:57:49.069Z,1.20
2018-11-12T15:00:22.369Z,1.10
2018-11-12T15:02:51.912Z,1.10
2018-11-12T15:05:22.644Z,1.10
2018-11-12T15:07:51.825Z,1.25
2018-11-12T15:10:20.999Z,1.10
2018-11-12T15:12:50.524Z,1.20
2018-11-12T15:15:19.697Z,1.30
2018-11-12T15:17:48.865Z,1.00
2018-11-12T15:20:19.173Z,1.00
2018-11-12T15:22:48.368Z,1.15
2018-11-12T15:25:21.689Z,1.00
2018-11-12T15:27:50.957Z,1.10
2018-11-12T15:30:22.125Z,1.05
2018-11-12T15:32:52.989Z,1.10
2018-11-12T15:35:22.091Z,1.10
2018-11-12T15:37:51.653Z,1.05
2018-11-12T15:40:20.788Z,1.17
2018-11-12T15:42:49.954Z,1.50
2018-11-12T15:45:20.873Z,1.00
2018-11-12T15:47:50.436Z,1.12
2018-11-12T15:50:33.048Z,1.10
2018-11-12T15:53:02.141Z,1.02
2018-11-12T15:55:31.308Z,1.10
2018-11-12T15:58:00.488Z,1.00
2018-11-12T16:00:29.629Z,1.10
2018-11-12T16:02:58.717Z,1.32
2018-11-12T16:05:27.878Z,1.37
2018-11-12T16:07:57.119Z,1.10
2018-11-12T16:10:26.201Z,1.40
2018-11-12T16:12:55.621Z,1.20
2018-11-12T16:15:24.817Z,1.17
2018-11-12T16:17:53.903Z,0.90
2018-11-12T16:20:26.901Z,0.90
2018-11-12T16:22:57.405Z,0.80
2018-11-12T16:25:27.289Z,0.80
2018-11-12T16:27:56.453Z,0.82
2018-11-12T16:30:25.637Z,0.82
2018-11-12T16:32:55.022Z,0.80
2018-11-12T16:35:25.276Z,0.95
2018-11-12T16:37:55.572Z,0.90
2018-11-12T16:40:24.837Z,0.90
2018-11-12T16:42:54.145Z,0.93
2018-11-12T16:45:23.289Z,1.10
2018-11-12T16:47:52.648Z,1.12
2018-11-12T16:50:21.845Z,1.00
2018-11-12T16:52:50.957Z,1.00
2018-11-12T16:55:22.381Z,1.10
2018-11-12T16:57:52.308Z,1.10
2018-11-12T17:00:23.340Z,1.40
2018-11-12T17:02:52.505Z,1.30
2018-11-12T17:05:23.811Z,1.20
2018-11-12T17:07:53.030Z,1.32
2018-11-12T17:10:23.685Z,1.35
2018-11-12T17:12:52.865Z,1.50
2018-11-12T17:15:22.178Z,1.40
2018-11-12T17:17:51.277Z,1.30
2018-11-12T17:20:21.621Z,1.42
2018-11-12T17:22:50.874Z,1.22
2018-11-12T17:25:20.097Z,1.30
2018-11-12T17:27:49.639Z,1.20
2018-11-12T17:30:20.293Z,1.40
2018-11-12T17:32:50.022Z,1.45
2018-11-12T17:35:20.496Z,1.47
2018-11-12T17:37:49.645Z,1.47
2018-11-12T17:40:21.727Z,1.50
2018-11-12T17:42:51.705Z,1.20
2018-11-12T17:45:22.144Z,1.42
2018-11-12T17:47:52.324Z,1.35
2018-11-12T17:50:21.541Z,1.50
2018-11-12T17:52:51.237Z,1.67
2018-11-12T17:55:21.817Z,1.60
2018-11-12T17:57:50.909Z,1.50
2018-11-12T18:00:25.533Z,1.30
2018-11-12T18:02:54.729Z,1.47
2018-11-12T18:05:23.841Z,1.42
2018-11-12T18:07:53.313Z,1.32
2018-11-12T18:10:22.363Z,1.40
2018-11-12T18:12:52.025Z,1.60
2018-11-12T18:15:22.164Z,1.47
2018-11-12T18:17:51.568Z,1.47
2018-11-12T18:20:23.508Z,1.65
2018-11-12T18:22:53.506Z,1.60
2018-11-12T18:25:22.629Z,1.40
2018-11-12T18:27:52.296Z,1.62
2018-11-12T18:30:24.107Z,1.67
2018-11-12T18:32:54.530Z,1.40
2018-11-12T18:35:23.625Z,1.70
2018-11-12T18:37:52.875Z,1.65
2018-11-12T18:40:23.610Z,1.52
2018-11-12T18:42:52.806Z,1.62
2018-11-12T18:45:23.838Z,1.40
2018-11-12T18:47:53.158Z,1.60
2018-11-12T18:50:25.524Z,1.57
2018-11-12T18:52:55.181Z,1.52
2018-11-12T18:55:24.348Z,1.50
2018-11-12T18:57:53.882Z,1.70
2018-11-12T19:00:24.257Z,1.52
2018-11-12T19:02:53.578Z,1.50
2018-11-12T19:05:26.487Z,1.72
2018-11-12T19:07:56.969Z,1.80
2018-11-12T19:10:28.162Z,1.80
2018-11-12T19:12:57.357Z,1.55
2018-11-12T19:15:28.194Z,1.60
2018-11-12T19:18:03.171Z,1.70
2018-11-12T19:20:32.320Z,1.70
2018-11-12T19:23:01.422Z,1.50
2018-11-12T19:25:30.610Z,1.72
2018-11-12T19:27:59.752Z,1.52
2018-11-12T19:30:29.968Z,1.95
2018-11-12T19:32:59.177Z,1.90
2018-11-12T19:35:30.520Z,1.90
2018-11-12T19:37:59.695Z,1.82
2018-11-12T19:40:30.294Z,2.25
2018-11-12T19:42:59.588Z,2.30
2018-11-12T19:45:28.809Z,2.20
2018-11-12T19:47:58.017Z,1.90
2018-11-12T19:50:28.489Z,1.90
2018-11-12T19:52:58.685Z,2.15
2018-11-12T19:55:27.852Z,2.00
2018-11-12T19:57:57.041Z,2.05
2018-11-12T20:00:27.472Z,1.92
2018-11-12T20:02:57.780Z,1.50
2018-11-12T20:05:26.873Z,1.60
2018-11-12T20:07:56.131Z,2.10
2018-11-12T20:10:25.452Z,1.62
2018-11-12T20:12:54.596Z,1.80
2018-11-12T20:15:24.699Z,2.00
2018-11-12T20:17:55.093Z,1.82
2018-11-12T20:20:26.616Z,1.82
2018-11-12T20:22:56.371Z,1.75
2018-11-12T20:25:25.505Z,1.60
2018-11-12T20:27:55.493Z,1.60
2018-11-12T20:30:33.372Z,1.90
2018-11-12T20:33:02.534Z,1.75
2018-11-12T20:35:31.692Z,1.70
2018-11-12T20:38:00.901Z,1.75
2018-11-12T20:40:31.036Z,1.52
2018-11-12T20:43:00.188Z,1.80
2018-11-12T20:45:29.833Z,1.72
2018-11-12T20:47:58.984Z,1.57
2018-11-12T20:50:28.613Z,1.60
2018-11-12T20:52:57.789Z,1.70
2018-11-12T20:55:27.277Z,1.80
2018-11-12T20:57:56.392Z,1.67
2018-11-12T21:00:27.628Z,1.70
2018-11-12T21:02:57.102Z,1.77
2018-11-12T21:05:27.515Z,2.12
2018-11-12T21:07:56.705Z,1.70
2018-11-12T21:10:25.807Z,1.52
2018-11-12T21:12:55.132Z,1.62
2018-11-12T21:15:25.072Z,1.82
2018-11-12T21:17:54.201Z,1.98
2018-11-12T21:20:24.597Z,2.10
2018-11-12T21:22:54.296Z,1.72
2018-11-12T21:25:24.677Z,1.77
2018-11-12T21:27:53.764Z,2.02
2018-11-12T21:30:26.316Z,1.72
2018-11-12T21:32:55.529Z,2.00
2018-11-12T21:35:25.109Z,2.00
2018-11-12T21:37:56.049Z,1.70
2018-11-12T21:40:26.550Z,2.10
2018-11-12T21:42:55.751Z,1.72
2018-11-12T21:45:26.414Z,1.87
2018-11-12T21:47:56.483Z,1.80
2018-11-12T21:50:25.702Z,2.05
2018-11-12T21:52:54.876Z,1.72
2018-11-12T21:55:24.192Z,2.00
2018-11-12T21:57:53.358Z,2.22
2018-11-12T22:00:24.257Z,2.05
2018-11-12T22:02:55.945Z,2.20
2018-11-12T22:05:26.289Z,2.40
2018-11-12T22:07:55.440Z,2.10
2018-11-12T22:10:24.576Z,2.08
2018-11-12T22:12:54.281Z,2.10
2018-11-12T22:15:23.445Z,2.52
2018-11-12T22:17:53.173Z,2.55
2018-11-12T22:20:24.295Z,2.33
2018-11-12T22:22:53.396Z,2.08
2018-11-12T22:25:23.141Z,2.70
2018-11-12T22:27:53.074Z,2.33
2018-11-12T22:30:23.430Z,2.10
2018-11-12T22:32:53.496Z,3.02
2018-11-12T22:35:22.656Z,2.90
2018-11-12T22:37:51.785Z,2.95
2018-11-12T22:40:21.409Z,2.90
2018-11-12T22:42:52.193Z,2.30
2018-11-12T22:45:22.998Z,2.37
2018-11-12T22:47:52.479Z,2.17
2018-11-12T22:50:21.601Z,2.20
2018-11-12T22:52:50.736Z,2.50
2018-11-12T22:55:20.325Z,2.40
2018-11-12T22:57:49.492Z,2.27
2018-11-12T23:00:27.078Z,2.10
2018-11-12T23:02:57.584Z,2.30
2018-11-12T23:05:27.129Z,2.25
2018-11-12T23:07:56.737Z,2.15
2018-11-12T23:10:25.888Z,2.15
2018-11-12T23:12:55.017Z,2.00
2018-11-12T23:15:24.240Z,1.80
2018-11-12T23:17:53.397Z,1.75
2018-11-12T23:20:23.701Z,1.80
2018-11-12T23:22:53.253Z,1.65
2018-11-12T23:25:22.429Z,1.50
2018-11-12T23:27:52.035Z,1.60
2018-11-12T23:30:22.413Z,1.62
2018-11-12T23:32:51.944Z,1.57
2018-11-12T23:35:23.371Z,1.70
2018-11-12T23:37:52.596Z,1.60
2018-11-12T23:40:22.295Z,1.47
2018-11-12T23:42:51.847Z,1.50
2018-11-12T23:45:21.209Z,1.50
2018-11-12T23:47:50.385Z,1.80
2018-11-12T23:50:21.604Z,1.75
2018-11-12T23:52:51.775Z,1.80
2018-11-12T23:55:21.225Z,1.62
2018-11-12T23:57:50.707Z,1.70
